createdAt,value
2023-05-04T16:04:15.067Z,8.40
2023-05-04T16:04:26.067Z,8.80
2023-05-04T16:04:36.244Z,9.00
2023-05-04T16:04:46.546Z,9.20
2023-05-04T16:04:57.436Z,9.10
2023-05-04T16:05:06.734Z,9.40
2023-05-04T16:05:17.368Z,9.50
2023-05-04T16:05:26.841Z,9.60
2023-05-04T16:05:37.046Z,8.70
2023-05-04T16:05:47.093Z,8.90
2023-05-04T16:06:07.214Z,10.10
2023-05-04T16:06:17.914Z,9.80
2023-05-04T16:06:27.628Z,8.90
2023-05-04T16:06:38.170Z,8.10
2023-05-04T16:06:47.759Z,7.80
2023-05-04T16:06:57.992Z,7.70
2023-05-04T16:07:08.042Z,7.40
2023-05-04T16:07:18.146Z,7.90
2023-05-04T16:07:28.335Z,8.20
2023-05-04T16:07:38.446Z,9.10
2023-05-04T16:07:48.563Z,8.50
2023-05-04T16:07:58.832Z,15.60
2023-05-04T16:08:09.016Z,19.20
2023-05-04T16:08:19.050Z,19.50
2023-05-04T16:08:29.113Z,12.00
2023-05-04T16:08:39.255Z,7.70
2023-05-04T16:08:49.533Z,7.30
2023-05-04T16:08:59.566Z,7.40
2023-05-04T16:09:09.834Z,8.00
2023-05-04T16:09:19.961Z,8.60
2023-05-04T16:09:29.933Z,8.40
2023-05-04T16:09:39.928Z,7.40
2023-05-04T16:09:50.216Z,6.70
2023-05-04T16:10:00.443Z,7.00
2023-05-04T16:10:10.651Z,6.90
2023-05-04T16:10:21.268Z,7.30
2023-05-04T16:10:30.684Z,6.90
2023-05-04T16:10:40.912Z,7.60
2023-05-04T16:10:50.920Z,7.70
2023-05-04T16:11:01.127Z,7.80
2023-05-04T16:11:11.166Z,8.00
2023-05-04T16:11:21.372Z,10.30
2023-05-04T16:11:32.116Z,11.80
2023-05-04T16:11:41.455Z,14.80
2023-05-04T16:11:51.891Z,12.70
2023-05-04T16:12:01.722Z,33.40
2023-05-04T16:12:12.029Z,31.90
2023-05-04T16:12:21.899Z,33.40
2023-05-04T16:12:41.206Z,9.30
2023-05-04T16:12:52.400Z,7.00
2023-05-04T16:13:02.579Z,6.80
2023-05-04T16:13:12.756Z,6.80
2023-05-04T16:13:22.785Z,7.30
2023-05-04T16:13:32.834Z,7.80
2023-05-04T16:13:42.863Z,8.00
2023-05-04T16:13:53.024Z,8.50
2023-05-04T16:14:03.097Z,8.30
2023-05-04T16:14:13.201Z,8.40
2023-05-04T16:14:23.392Z,7.80
2023-05-04T16:14:34.058Z,7.60
2023-05-04T16:14:43.551Z,7.70
2023-05-04T16:14:53.669Z,8.40
2023-05-04T16:15:03.872Z,9.10
2023-05-04T16:15:14.457Z,9.70
2023-05-04T16:15:24.065Z,9.80
2023-05-04T16:15:34.219Z,10.50
2023-05-04T16:15:44.394Z,9.70
2023-05-04T16:15:54.460Z,8.80
2023-05-04T16:16:04.644Z,8.70
2023-05-04T16:16:14.835Z,11.20
2023-05-04T16:16:25.010Z,12.60
2023-05-04T16:16:35.115Z,11.20
2023-05-04T16:16:45.206Z,7.50
2023-05-04T16:16:55.352Z,6.80
2023-05-04T16:17:06.530Z,7.80
2023-05-04T16:17:15.583Z,8.60
2023-05-04T16:17:26.077Z,9.10
2023-05-04T16:17:36.048Z,8.60
2023-05-04T16:17:45.854Z,8.00
2023-05-04T16:17:55.858Z,8.00
2023-05-04T16:18:15.217Z,9.40
2023-05-04T16:18:27.198Z,9.40
2023-05-04T16:18:36.972Z,9.00
2023-05-04T16:18:47.461Z,8.40
2023-05-04T16:18:56.764Z,8.00
2023-05-04T16:19:08.458Z,8.50
2023-05-04T16:19:17.522Z,8.20
2023-05-04T16:19:27.877Z,8.50
2023-05-04T16:19:37.230Z,8.30
2023-05-04T16:19:58.238Z,11.10
2023-05-04T16:20:07.739Z,11.80
2023-05-04T16:20:18.046Z,11.90
2023-05-04T16:20:28.189Z,10.20
2023-05-04T16:20:37.734Z,9.10
2023-05-04T16:20:48.115Z,8.60
2023-05-04T16:20:58.913Z,8.00
2023-05-04T16:21:08.234Z,8.10
2023-05-04T16:21:18.376Z,8.10
2023-05-04T16:21:29.788Z,8.50
2023-05-04T16:21:38.668Z,8.20
2023-05-04T16:21:48.754Z,7.90
2023-05-04T16:21:59.085Z,7.70
2023-05-04T16:22:09.022Z,7.80
2023-05-04T16:22:19.203Z,7.90
2023-05-04T16:22:38.792Z,8.00
2023-05-04T16:22:50.105Z,9.40
2023-05-04T16:23:00.422Z,13.70
2023-05-04T16:23:09.764Z,18.20
2023-05-04T16:23:19.972Z,18.30
2023-05-04T16:23:30.386Z,14.30
2023-05-04T16:23:40.232Z,9.90
2023-05-04T16:23:50.245Z,8.60
2023-05-04T16:24:00.740Z,8.30
2023-05-04T16:24:10.628Z,8.10
2023-05-04T16:24:21.365Z,8.20
2023-05-04T16:24:31.821Z,9.00
2023-05-04T16:24:41.069Z,9.10
2023-05-04T16:24:51.061Z,9.40
2023-05-04T16:25:01.798Z,8.80
2023-05-04T16:25:11.828Z,10.00
2023-05-04T16:25:21.500Z,11.20
2023-05-04T16:25:41.733Z,10.00
2023-05-04T16:25:51.819Z,10.50
2023-05-04T16:26:01.935Z,12.20
2023-05-04T16:26:12.027Z,11.80
2023-05-04T16:26:22.188Z,10.10
2023-05-04T16:26:32.194Z,8.40
2023-05-04T16:26:42.331Z,8.60
2023-05-04T16:26:52.393Z,8.60
2023-05-04T16:27:02.515Z,8.50
2023-05-04T16:27:12.542Z,8.80
2023-05-04T16:27:22.800Z,11.40
2023-05-04T16:27:32.903Z,12.90
2023-05-04T16:27:43.235Z,13.90
2023-05-04T16:27:53.190Z,12.60
2023-05-04T16:28:03.313Z,12.80
2023-05-04T16:28:13.355Z,12.50
2023-05-04T16:28:23.325Z,11.60
2023-05-04T16:28:33.609Z,10.20
2023-05-04T16:28:43.731Z,9.10
2023-05-04T16:28:53.921Z,8.70
2023-05-04T16:29:04.021Z,9.10
2023-05-04T16:29:14.106Z,9.70
2023-05-04T16:29:24.242Z,9.90
2023-05-04T16:29:34.410Z,9.60
2023-05-04T16:29:44.524Z,9.60
2023-05-04T16:29:54.675Z,9.60
2023-05-04T16:30:04.856Z,9.90
2023-05-04T16:30:14.977Z,10.10
2023-05-04T16:30:25.192Z,21.10
2023-05-04T16:30:35.282Z,21.80
2023-05-04T16:30:45.460Z,21.80
2023-05-04T16:30:55.427Z,10.70
2023-05-04T16:31:05.604Z,11.00
2023-05-04T16:31:15.777Z,14.80
2023-05-04T16:31:25.784Z,18.40
2023-05-04T16:31:35.943Z,20.10
2023-05-04T16:31:46.099Z,17.10
2023-05-04T16:31:56.252Z,13.20
2023-05-04T16:32:06.175Z,10.50
2023-05-04T16:32:16.593Z,9.80
2023-05-04T16:32:26.611Z,10.10
2023-05-04T16:32:36.812Z,9.90
2023-05-04T16:32:46.805Z,10.00
2023-05-04T16:32:56.993Z,46.10
2023-05-04T16:33:07.134Z,47.00
2023-05-04T16:33:17.298Z,47.90
2023-05-04T16:33:27.719Z,12.10
2023-05-04T16:33:37.574Z,11.90
2023-05-04T16:33:47.742Z,11.90
2023-05-04T16:33:57.809Z,12.10
2023-05-04T16:34:08.115Z,11.80
2023-05-04T16:34:18.017Z,10.50
2023-05-04T16:34:28.125Z,9.50
2023-05-04T16:34:38.373Z,10.10
2023-05-04T16:34:48.628Z,10.30
2023-05-04T16:34:59.056Z,10.30
2023-05-04T16:35:12.025Z,9.40
2023-05-04T16:35:19.428Z,9.30
2023-05-04T16:35:30.488Z,9.30
2023-05-04T16:35:39.684Z,9.10
2023-05-04T16:35:49.060Z,8.70
2023-05-04T16:35:59.310Z,8.50
2023-05-04T16:36:20.265Z,7.60
2023-05-04T16:36:30.560Z,7.90
2023-05-04T16:36:47.674Z,8.30
2023-05-04T16:36:54.281Z,8.50
2023-05-04T16:37:11.268Z,8.70
2023-05-04T16:37:18.807Z,9.50
2023-05-04T16:37:29.397Z,9.40
2023-05-04T16:37:39.309Z,8.80
2023-05-04T16:37:49.505Z,8.60
2023-05-04T16:38:00.261Z,8.60
2023-05-04T16:38:13.132Z,8.90
2023-05-04T16:38:21.732Z,9.20
2023-05-04T16:38:29.639Z,9.00
2023-05-04T16:38:39.682Z,9.20
2023-05-04T16:38:49.719Z,9.20
2023-05-04T16:39:00.045Z,9.10
2023-05-04T16:39:20.735Z,8.30
2023-05-04T16:39:30.947Z,8.50
2023-05-04T16:39:40.712Z,8.60
2023-05-04T16:39:50.860Z,8.60
2023-05-04T16:40:03.502Z,9.10
2023-05-04T16:40:11.104Z,9.60
2023-05-04T16:40:21.046Z,9.60
2023-05-04T16:40:31.142Z,9.60
2023-05-04T16:40:41.550Z,9.40
2023-05-04T16:40:51.812Z,9.70
2023-05-04T16:41:11.451Z,9.30
2023-05-04T16:41:23.422Z,8.60
2023-05-04T16:41:34.222Z,8.60
2023-05-04T16:41:43.187Z,9.00
2023-05-04T16:41:52.382Z,9.40
2023-05-04T16:42:02.821Z,9.70
2023-05-04T16:42:12.895Z,9.90
2023-05-04T16:42:23.541Z,9.60
2023-05-04T16:42:42.563Z,9.30
2023-05-04T16:42:52.757Z,9.70
2023-05-04T16:43:02.695Z,9.30
2023-05-04T16:43:12.950Z,10.20
2023-05-04T16:43:22.861Z,10.10
2023-05-04T16:43:33.192Z,10.10
2023-05-04T16:43:43.167Z,8.80
2023-05-04T16:43:53.442Z,28.60
2023-05-04T16:44:03.527Z,30.10
2023-05-04T16:44:13.547Z,32.70
2023-05-04T16:44:23.589Z,16.50
2023-05-04T16:44:33.664Z,18.50
2023-05-04T16:44:44.046Z,27.70
2023-05-04T16:44:54.941Z,24.60
2023-05-04T16:45:04.153Z,49.60
2023-05-04T16:45:14.415Z,38.80
2023-05-04T16:45:25.131Z,38.80
2023-05-04T16:45:34.416Z,10.60
2023-05-04T16:45:44.535Z,10.70
2023-05-04T16:46:04.856Z,15.90
2023-05-04T16:46:15.401Z,15.40
2023-05-04T16:46:25.084Z,13.50
2023-05-04T16:46:35.203Z,10.60
2023-05-04T16:46:46.045Z,19.30
2023-05-04T16:46:55.373Z,24.00
2023-05-04T16:47:05.479Z,25.20
2023-05-04T16:47:15.741Z,16.30
2023-05-04T16:47:25.918Z,13.80
2023-05-04T16:47:36.127Z,13.60
2023-05-04T16:47:46.312Z,13.80
2023-05-04T16:47:56.641Z,11.40
2023-05-04T16:48:07.095Z,10.90
2023-05-04T16:48:21.225Z,10.40
2023-05-04T16:48:30.591Z,10.50
2023-05-04T16:48:39.105Z,10.60
2023-05-04T16:48:49.504Z,10.70
2023-05-04T16:49:07.685Z,10.70
2023-05-04T16:49:17.424Z,10.60
2023-05-04T16:49:24.019Z,10.50
2023-05-04T16:49:33.869Z,10.30
2023-05-04T16:49:44.425Z,10.60
2023-05-04T16:50:03.279Z,10.30
2023-05-04T16:50:13.887Z,10.60
2023-05-04T16:50:20.541Z,11.30
2023-05-04T16:50:39.558Z,12.20
2023-05-04T16:50:45.537Z,11.20
2023-05-04T16:50:55.594Z,9.80
2023-05-04T16:51:06.751Z,9.90
2023-05-04T16:51:26.403Z,11.20
2023-05-04T16:51:33.684Z,11.50
2023-05-04T16:51:42.813Z,10.90
2023-05-04T16:51:52.882Z,10.50
2023-05-04T16:52:02.973Z,10.40
2023-05-04T16:52:13.104Z,10.30
2023-05-04T16:52:33.641Z,10.20
2023-05-04T16:52:43.588Z,10.10
2023-05-04T16:52:53.494Z,10.30
2023-05-04T16:53:03.822Z,10.40
2023-05-04T16:53:14.208Z,10.30
2023-05-04T16:53:24.004Z,10.20
2023-05-04T16:53:34.042Z,10.20
2023-05-04T16:53:44.630Z,10.10
2023-05-04T16:53:54.436Z,9.70
2023-05-04T16:54:04.681Z,9.40
2023-05-04T16:54:14.671Z,24.00
2023-05-04T16:54:24.665Z,31.70
2023-05-04T16:54:34.761Z,37.30
2023-05-04T16:54:44.926Z,24.40
2023-05-04T16:54:55.092Z,17.00
2023-05-04T16:55:05.107Z,11.20
2023-05-04T16:55:16.108Z,9.50
2023-05-04T16:55:25.359Z,9.40
2023-05-04T16:55:35.797Z,9.30
2023-05-04T16:55:46.465Z,11.20
2023-05-04T16:55:55.846Z,12.00
2023-05-04T16:56:06.059Z,13.00
2023-05-04T16:56:16.638Z,11.30
2023-05-04T16:56:26.280Z,12.60
2023-05-04T16:56:36.461Z,13.80
2023-05-04T16:56:46.558Z,13.50
2023-05-04T16:56:57.068Z,11.30
2023-05-04T16:57:06.706Z,10.20
2023-05-04T16:57:16.730Z,10.40
2023-05-04T16:57:26.987Z,10.10
2023-05-04T16:57:36.847Z,10.00
2023-05-04T16:57:48.317Z,9.70
2023-05-04T16:57:57.714Z,9.80
2023-05-04T16:58:07.415Z,9.80
2023-05-04T16:58:17.530Z,9.70
2023-05-04T16:58:27.474Z,9.40
2023-05-04T16:58:50.535Z,8.90
2023-05-04T16:58:57.067Z,8.80
2023-05-04T16:59:09.460Z,8.70
2023-05-04T16:59:23.220Z,8.70
2023-05-04T16:59:32.646Z,8.80
2023-05-04T16:59:39.596Z,9.10
2023-05-04T16:59:59.916Z,9.80
2023-05-04T17:00:10.152Z,9.80
2023-05-04T17:00:20.236Z,9.50
2023-05-04T17:00:30.581Z,9.30
2023-05-04T17:00:40.394Z,9.40
2023-05-04T17:00:51.058Z,9.30
2023-05-04T17:01:00.585Z,9.40
2023-05-04T17:01:11.313Z,9.30
2023-05-04T17:01:20.699Z,9.20
2023-05-04T17:01:31.105Z,9.00
2023-05-04T17:01:41.123Z,9.40
2023-05-04T17:01:51.146Z,9.30
2023-05-04T17:02:01.377Z,9.70
2023-05-04T17:02:11.725Z,9.10
2023-05-04T17:02:21.605Z,9.60
2023-05-04T17:02:31.778Z,9.20
2023-05-04T17:02:42.071Z,9.30
2023-05-04T17:02:52.123Z,9.00
2023-05-04T17:03:03.761Z,8.70
2023-05-04T17:03:13.118Z,8.50
2023-05-04T17:03:22.488Z,8.20
2023-05-04T17:03:32.387Z,8.30
2023-05-04T17:03:42.473Z,8.20
2023-05-04T17:03:52.674Z,8.50
2023-05-04T17:04:12.749Z,8.50
2023-05-04T17:04:23.034Z,8.50
2023-05-04T17:04:33.051Z,8.40
2023-05-04T17:04:43.463Z,8.30
2023-05-04T17:04:53.403Z,8.40
